createdAt,value
2018-08-11T00:00:56.494Z,97620
2018-08-11T00:02:12.415Z,97620
2018-08-11T00:03:29.312Z,97620
2018-08-11T00:04:45.221Z,97619
2018-08-11T00:06:01.135Z,97626
2018-08-11T00:07:17.046Z,97622
2018-08-11T00:08:32.973Z,97626
2018-08-11T00:09:48.953Z,97627
2018-08-11T00:11:04.846Z,97622
2018-08-11T00:12:20.763Z,97621
2018-08-11T00:13:36.654Z,97618
2018-08-11T00:14:52.535Z,97618
2018-08-11T00:16:08.457Z,97617
2018-08-11T00:17:24.453Z,97618
2018-08-11T00:18:40.364Z,97620
2018-08-11T00:19:56.299Z,97618
2018-08-11T00:21:12.273Z,97622
2018-08-11T00:22:29.239Z,97622
2018-08-11T00:23:45.200Z,97623
2018-08-11T00:25:01.096Z,97617
2018-08-11T00:26:17.008Z,97620
2018-08-11T00:27:32.975Z,97621
2018-08-11T00:28:48.866Z,97622
2018-08-11T00:30:04.757Z,97621
2018-08-11T00:31:20.665Z,97620
2018-08-11T00:32:36.642Z,97619
2018-08-11T00:33:52.548Z,97619
2018-08-11T00:35:08.437Z,97621
2018-08-11T00:36:24.411Z,97623
2018-08-11T00:37:40.286Z,97620
2018-08-11T00:38:57.185Z,97620
2018-08-11T00:40:13.105Z,97617
2018-08-11T00:41:29.030Z,97620
2018-08-11T00:42:44.982Z,97620
2018-08-11T00:44:00.975Z,97620
2018-08-11T00:45:16.910Z,97623
2018-08-11T00:46:32.920Z,97615
2018-08-11T00:47:48.857Z,97616
2018-08-11T00:49:04.810Z,97616
2018-08-11T00:50:20.780Z,97621
2018-08-11T00:51:36.728Z,97619
2018-08-11T00:52:52.632Z,97619
2018-08-11T00:54:08.559Z,97619
2018-08-11T00:55:24.540Z,97620
2018-08-11T00:56:40.446Z,97622
2018-08-11T00:57:56.373Z,97618
2018-08-11T00:59:12.285Z,97617
2018-08-11T01:00:28.265Z,97614
2018-08-11T01:01:44.205Z,97613
2018-08-11T01:03:00.137Z,97612
2018-08-11T01:04:16.096Z,97611
2018-08-11T01:05:31.997Z,97614
2018-08-11T01:06:47.915Z,97611
2018-08-11T01:08:03.831Z,97611
2018-08-11T01:09:19.771Z,97617
2018-08-11T01:10:35.675Z,97619
2018-08-11T01:11:51.722Z,97619
2018-08-11T01:13:07.674Z,97620
2018-08-11T01:14:23.621Z,97622
2018-08-11T01:15:39.527Z,97618
2018-08-11T01:16:55.461Z,97616
2018-08-11T01:18:11.359Z,97616
2018-08-11T01:19:27.316Z,97618
2018-08-11T01:20:43.266Z,97614
2018-08-11T01:21:59.179Z,97616
2018-08-11T01:23:15.072Z,97616
2018-08-11T01:24:30.984Z,97615
2018-08-11T01:25:46.907Z,97617
2018-08-11T01:27:02.907Z,97615
2018-08-11T01:28:18.821Z,97619
2018-08-11T01:29:35.710Z,97621
2018-08-11T01:30:51.612Z,97619
2018-08-11T01:32:07.501Z,97623
2018-08-11T01:33:23.381Z,97622
2018-08-11T01:34:39.351Z,97619
2018-08-11T01:35:55.238Z,97620
2018-08-11T01:37:11.166Z,97621
2018-08-11T01:38:27.088Z,97622
2018-08-11T01:39:43.016Z,97622
2018-08-11T01:40:58.974Z,97628
2018-08-11T01:42:14.892Z,97628
2018-08-11T01:43:30.795Z,97626
2018-08-11T01:44:46.696Z,97627
2018-08-11T01:46:02.632Z,97626
2018-08-11T01:47:18.541Z,97625
2018-08-11T01:48:34.437Z,97623
2018-08-11T01:49:50.316Z,97627
2018-08-11T01:51:06.234Z,97632
2018-08-11T01:52:22.152Z,97633
2018-08-11T01:53:38.029Z,97635
2018-08-11T01:54:53.964Z,97632
2018-08-11T01:56:10.823Z,97628
2018-08-11T01:57:26.729Z,97630
2018-08-11T01:58:42.715Z,97630
2018-08-11T01:59:58.636Z,97627
2018-08-11T02:01:14.542Z,97631
2018-08-11T02:02:30.446Z,97627
2018-08-11T02:03:46.402Z,97634
2018-08-11T02:05:02.324Z,97628
2018-08-11T02:06:18.249Z,97627
2018-08-11T02:07:34.155Z,97628
2018-08-11T02:08:50.133Z,97629
2018-08-11T02:10:06.017Z,97627
2018-08-11T02:11:21.961Z,97632
2018-08-11T02:12:37.833Z,97630
2018-08-11T02:13:53.757Z,97629
2018-08-11T02:15:09.696Z,97629
2018-08-11T02:16:25.588Z,97633
2018-08-11T02:17:41.471Z,97634
2018-08-11T02:18:57.358Z,97635
2018-08-11T02:20:13.251Z,97635
2018-08-11T02:21:29.121Z,97635
2018-08-11T02:22:45.010Z,97633
2018-08-11T02:24:01.016Z,97632
2018-08-11T02:25:16.934Z,97636
2018-08-11T02:26:32.808Z,97633
2018-08-11T02:27:48.757Z,97637
2018-08-11T02:29:04.734Z,97636
2018-08-11T02:30:20.603Z,97633
2018-08-11T02:31:36.496Z,97635
2018-08-11T02:32:52.411Z,97635
2018-08-11T02:34:08.359Z,97635
2018-08-11T02:35:24.250Z,97640
2018-08-11T02:36:40.166Z,97639
2018-08-11T02:37:56.072Z,97636
2018-08-11T02:39:12.483Z,97637
2018-08-11T02:40:28.398Z,97641
2018-08-11T02:41:44.328Z,97644
2018-08-11T02:43:00.229Z,97644
2018-08-11T02:44:16.107Z,97645
2018-08-11T02:45:32.053Z,97645
2018-08-11T02:46:47.959Z,97648
2018-08-11T02:48:03.901Z,97642
2018-08-11T02:49:19.801Z,97643
2018-08-11T02:50:35.721Z,97648
2018-08-11T02:51:51.630Z,97640
2018-08-11T02:53:07.537Z,97643
2018-08-11T02:54:23.418Z,97639
2018-08-11T02:55:39.339Z,97646
2018-08-11T02:56:55.288Z,97643
2018-08-11T02:58:11.148Z,97646
2018-08-11T02:59:27.030Z,97644
2018-08-11T03:00:43.021Z,97645
2018-08-11T03:01:58.914Z,97644
2018-08-11T03:03:14.804Z,97645
2018-08-11T03:04:30.706Z,97642
2018-08-11T03:05:46.641Z,97644
2018-08-11T03:07:02.537Z,97643
2018-08-11T03:08:18.434Z,97642
2018-08-11T03:09:34.334Z,97644
2018-08-11T03:10:50.233Z,97646
2018-08-11T03:12:06.179Z,97644
2018-08-11T03:13:22.122Z,97649
2018-08-11T03:14:38.047Z,97646
2018-08-11T03:15:53.960Z,97649
2018-08-11T03:17:09.857Z,97647
2018-08-11T03:18:25.758Z,97650
2018-08-11T03:19:41.638Z,97653
2018-08-11T03:20:57.540Z,97655
2018-08-11T03:22:13.467Z,97655
2018-08-11T03:23:29.374Z,97652
2018-08-11T03:24:45.372Z,97653
2018-08-11T03:26:01.247Z,97660
2018-08-11T03:27:17.238Z,97657
2018-08-11T03:28:34.139Z,97657
2018-08-11T03:29:50.017Z,97658
2018-08-11T03:31:05.898Z,97664
2018-08-11T03:32:21.779Z,97665
2018-08-11T03:33:37.692Z,97664
2018-08-11T03:34:53.614Z,97664
2018-08-11T03:36:09.547Z,97666
2018-08-11T03:37:25.415Z,97667
2018-08-11T03:38:41.327Z,97668
2018-08-11T03:39:57.225Z,97674
2018-08-11T03:41:13.116Z,97676
2018-08-11T03:42:29.007Z,97674
2018-08-11T03:43:44.956Z,97672
2018-08-11T03:45:00.848Z,97678
2018-08-11T03:46:16.713Z,97679
2018-08-11T03:47:32.597Z,97679
2018-08-11T03:48:48.500Z,97679
2018-08-11T03:50:04.417Z,97679
2018-08-11T03:51:20.319Z,97679
2018-08-11T03:52:36.283Z,97684
2018-08-11T03:53:52.127Z,97680
2018-08-11T03:55:08.040Z,97686
2018-08-11T03:56:23.924Z,97680
2018-08-11T03:57:39.839Z,97684
2018-08-11T03:58:55.766Z,97684
2018-08-11T04:00:11.692Z,97687
2018-08-11T04:01:27.695Z,97690
2018-08-11T04:02:43.610Z,97689
2018-08-11T04:03:59.507Z,97692
2018-08-11T04:05:15.397Z,97694
2018-08-11T04:06:31.381Z,97694
2018-08-11T04:07:47.260Z,97695
2018-08-11T04:09:03.151Z,97696
2018-08-11T04:10:19.030Z,97696
2018-08-11T04:11:34.941Z,97695
2018-08-11T04:12:50.861Z,97697
2018-08-11T04:14:06.766Z,97699
2018-08-11T04:15:22.637Z,97697
2018-08-11T04:16:38.625Z,97701
2018-08-11T04:17:54.670Z,97699
2018-08-11T04:19:10.554Z,97694
2018-08-11T04:20:26.456Z,97697
2018-08-11T04:21:42.537Z,97699
2018-08-11T04:22:58.454Z,97701
2018-08-11T04:24:14.367Z,97703
2018-08-11T04:25:30.265Z,97705
2018-08-11T04:26:46.139Z,97714
2018-08-11T04:28:02.045Z,97713
2018-08-11T04:29:17.943Z,97714
2018-08-11T04:30:33.834Z,97715
2018-08-11T04:31:49.729Z,97715
2018-08-11T04:33:05.702Z,97715
2018-08-11T04:34:21.736Z,97719
2018-08-11T04:35:37.760Z,97719
2018-08-11T04:36:53.605Z,97721
2018-08-11T04:38:09.502Z,97719
2018-08-11T04:39:25.462Z,97714
2018-08-11T04:40:41.377Z,97720
2018-08-11T04:41:57.296Z,97721
2018-08-11T04:43:13.165Z,97721
2018-08-11T04:44:29.056Z,97722
2018-08-11T04:45:44.941Z,97726
2018-08-11T04:47:00.880Z,97726
2018-08-11T04:48:16.767Z,97726
2018-08-11T04:49:32.671Z,97730
2018-08-11T04:50:48.616Z,97728
2018-08-11T04:52:04.552Z,97727
2018-08-11T04:53:20.436Z,97727
2018-08-11T04:54:36.359Z,97728
2018-08-11T04:55:52.269Z,97730
2018-08-11T04:57:08.221Z,97726
2018-08-11T04:58:24.116Z,97733
2018-08-11T04:59:40.041Z,97731
2018-08-11T05:00:55.943Z,97733
2018-08-11T05:02:11.846Z,97734
2018-08-11T05:03:28.794Z,97738
2018-08-11T05:04:44.733Z,97736
2018-08-11T05:06:00.650Z,97742
2018-08-11T05:07:16.556Z,97742
2018-08-11T05:08:32.441Z,97741
2018-08-11T05:09:48.412Z,97742
2018-08-11T05:11:04.323Z,97741
2018-08-11T05:12:20.364Z,97745
2018-08-11T05:13:36.319Z,97750
2018-08-11T05:14:53.253Z,97747
2018-08-11T05:16:09.189Z,97749
2018-08-11T05:17:25.197Z,97749
2018-08-11T05:18:41.136Z,97752
2018-08-11T05:19:57.141Z,97753
2018-08-11T05:21:12.991Z,97754
2018-08-11T05:22:28.933Z,97761
2018-08-11T05:23:44.836Z,97763
2018-08-11T05:25:00.745Z,97762
2018-08-11T05:26:16.746Z,97762
2018-08-11T05:27:32.585Z,97762
2018-08-11T05:28:48.499Z,97764
2018-08-11T05:30:04.459Z,97768
2018-08-11T05:31:20.382Z,97762
2018-08-11T05:32:36.314Z,97772
2018-08-11T05:33:52.302Z,97773
2018-08-11T05:35:08.254Z,97771
2018-08-11T05:36:24.170Z,97770
2018-08-11T05:37:40.110Z,97773
2018-08-11T05:38:56.116Z,97773
2018-08-11T05:40:12.054Z,97771
2018-08-11T05:41:28.064Z,97773
2018-08-11T05:42:43.952Z,97779
2018-08-11T05:43:59.836Z,97776
2018-08-11T05:45:15.718Z,97777
2018-08-11T05:46:31.673Z,97779
2018-08-11T05:47:47.572Z,97774
2018-08-11T05:49:03.557Z,97781
2018-08-11T05:50:19.650Z,97777
2018-08-11T05:51:36.575Z,97777
2018-08-11T05:52:53.539Z,97782
2018-08-11T05:54:09.437Z,97778
2018-08-11T05:55:25.463Z,97781
2018-08-11T05:56:41.372Z,97785
2018-08-11T05:57:57.299Z,97788
2018-08-11T05:59:13.224Z,97789
2018-08-11T06:00:29.181Z,97791
2018-08-11T06:01:45.084Z,97789
2018-08-11T06:03:00.997Z,97794
2018-08-11T06:04:16.899Z,97795
2018-08-11T06:05:32.893Z,97794
2018-08-11T06:06:48.794Z,97796
2018-08-11T06:08:04.807Z,97793
2018-08-11T06:09:20.714Z,97798
2018-08-11T06:10:36.775Z,97796
2018-08-11T06:11:52.717Z,97797
2018-08-11T06:13:08.647Z,97797
2018-08-11T06:14:24.545Z,97798
2018-08-11T06:15:40.471Z,97801
2018-08-11T06:16:56.381Z,97803
2018-08-11T06:18:12.327Z,97803
2018-08-11T06:19:28.217Z,97802
2018-08-11T06:20:44.113Z,97805
2018-08-11T06:22:00.053Z,97799
2018-08-11T06:23:15.942Z,97801
2018-08-11T06:24:31.840Z,97805
2018-08-11T06:25:47.744Z,97810
2018-08-11T06:27:03.655Z,97811
2018-08-11T06:28:19.613Z,97812
2018-08-11T06:29:35.597Z,97813
2018-08-11T06:30:51.494Z,97812
2018-08-11T06:32:07.542Z,97810
2018-08-11T06:33:23.469Z,97806
2018-08-11T06:34:39.398Z,97810
2018-08-11T06:35:55.453Z,97811
2018-08-11T06:37:11.365Z,97808
2018-08-11T06:38:27.402Z,97808
2018-08-11T06:39:43.350Z,97806
2018-08-11T06:40:59.489Z,97805
2018-08-11T06:42:15.243Z,97808
2018-08-11T06:43:31.205Z,97804
2018-08-11T06:44:47.083Z,97806
2018-08-11T06:46:03.044Z,97806
2018-08-11T06:47:19.015Z,97807
2018-08-11T06:48:34.969Z,97809
2018-08-11T06:49:50.880Z,97810
2018-08-11T06:51:06.862Z,97806
2018-08-11T06:52:22.833Z,97811
2018-08-11T06:53:38.794Z,97813
2018-08-11T06:54:54.766Z,97811
2018-08-11T06:56:10.691Z,97812
2018-08-11T06:57:26.645Z,97808
2018-08-11T06:58:42.542Z,97807
2018-08-11T06:59:58.525Z,97808
2018-08-11T07:01:14.453Z,97808
2018-08-11T07:02:30.356Z,97808
2018-08-11T07:03:46.328Z,97810
2018-08-11T07:05:02.365Z,97810
2018-08-11T07:06:18.363Z,97808
2018-08-11T07:07:34.301Z,97810
2018-08-11T07:08:50.269Z,97805
2018-08-11T07:10:06.245Z,97799
2018-08-11T07:11:22.254Z,97802
2018-08-11T07:12:38.216Z,97805
2018-08-11T07:13:54.116Z,97805
2018-08-11T07:15:10.194Z,97805
2018-08-11T07:16:26.150Z,97802
2018-08-11T07:17:42.027Z,97801
2018-08-11T07:18:57.970Z,97804
2018-08-11T07:20:14.198Z,97800
2018-08-11T07:21:30.215Z,97803
2018-08-11T07:22:46.108Z,97807
2018-08-11T07:24:02.109Z,97804
2018-08-11T07:25:18.050Z,97800
2018-08-11T07:26:33.993Z,97803
2018-08-11T07:27:49.939Z,97797
2018-08-11T07:29:06.841Z,97802
2018-08-11T07:30:22.930Z,97799
2018-08-11T07:31:38.859Z,97800
2018-08-11T07:32:54.786Z,97800
2018-08-11T07:34:10.817Z,97803
2018-08-11T07:37:08.515Z,97800
2018-08-11T07:38:24.467Z,97794
2018-08-11T07:39:40.443Z,97796
2018-08-11T07:40:56.297Z,97797
2018-08-11T07:42:12.256Z,97804
2018-08-11T07:43:28.447Z,97800
2018-08-11T07:44:44.428Z,97799
2018-08-11T07:46:00.364Z,97798
2018-08-11T07:47:16.328Z,97797
2018-08-11T07:48:32.322Z,97791
2018-08-11T07:49:48.221Z,97798
2018-08-11T07:51:04.197Z,97794
2018-08-11T07:52:20.144Z,97797
2018-08-11T07:53:36.073Z,97799
2018-08-11T07:54:52.001Z,97795
2018-08-11T07:56:07.990Z,97794
2018-08-11T07:57:23.932Z,97795
2018-08-11T07:58:39.875Z,97795
2018-08-11T07:59:55.835Z,97797
2018-08-11T08:01:11.794Z,97795
2018-08-11T08:02:27.696Z,97798
2018-08-11T08:03:43.610Z,97800
2018-08-11T08:04:59.540Z,97799
2018-08-11T08:06:15.509Z,97793
2018-08-11T08:09:12.055Z,97793
2018-08-11T08:10:28.010Z,97798
2018-08-11T08:11:43.907Z,97795
2018-08-11T08:12:59.893Z,97795
2018-08-11T08:14:15.861Z,97795
2018-08-11T08:15:31.829Z,97798
2018-08-11T08:16:47.742Z,97795
2018-08-11T08:18:03.677Z,97793
2018-08-11T08:19:19.588Z,97798
2018-08-11T08:20:35.514Z,97790
2018-08-11T08:21:51.408Z,97791
2018-08-11T08:23:07.383Z,97791
2018-08-11T08:24:23.371Z,97792
2018-08-11T08:25:39.351Z,97789
2018-08-11T08:26:55.406Z,97796
2018-08-11T08:28:11.237Z,97795
2018-08-11T08:29:27.232Z,97790
2018-08-11T08:30:43.248Z,97791
2018-08-11T08:31:59.244Z,97790
2018-08-11T08:33:15.236Z,97793
2018-08-11T08:34:31.223Z,97795
2018-08-11T08:35:47.279Z,97794
2018-08-11T08:37:03.221Z,97793
2018-08-11T08:38:19.158Z,97790
2018-08-11T08:39:35.109Z,97789
2018-08-11T08:40:51.055Z,97791
2018-08-11T08:42:06.969Z,97786
2018-08-11T08:43:22.909Z,97792
2018-08-11T08:44:38.870Z,97791
2018-08-11T08:45:54.844Z,97794
2018-08-11T08:47:10.891Z,97791
2018-08-11T08:48:26.834Z,97792
2018-08-11T08:49:42.818Z,97794
2018-08-11T08:50:58.767Z,97795
2018-08-11T08:52:14.707Z,97784
2018-08-11T08:55:11.458Z,97786
2018-08-11T08:56:27.396Z,97781
2018-08-11T08:57:43.408Z,97782
2018-08-11T08:58:59.349Z,97782
2018-08-11T09:00:15.213Z,97785
2018-08-11T09:01:31.147Z,97783
2018-08-11T09:02:47.103Z,97779
2018-08-11T09:04:03.057Z,97779
2018-08-11T09:05:18.972Z,97778
2018-08-11T09:06:34.937Z,97779
2018-08-11T09:07:50.947Z,97773
2018-08-11T09:09:06.893Z,97778
2018-08-11T09:10:23.185Z,97780
2018-08-11T09:11:40.113Z,97780
2018-08-11T09:12:56.033Z,97782
2018-08-11T09:14:12.030Z,97779
2018-08-11T09:15:27.948Z,97778
2018-08-11T09:16:43.994Z,97779
2018-08-11T09:18:00.041Z,97778
2018-08-11T09:19:16.013Z,97775
2018-08-11T09:22:16.656Z,97773
2018-08-11T09:23:32.598Z,97768
2018-08-11T09:24:48.536Z,97764
2018-08-11T09:26:04.543Z,97768
2018-08-11T09:27:20.505Z,97768
2018-08-11T09:28:36.627Z,97767
2018-08-11T09:29:52.559Z,97765
2018-08-11T09:31:08.582Z,97765
2018-08-11T09:32:24.637Z,97762
2018-08-11T09:33:40.619Z,97765
2018-08-11T09:34:56.694Z,97761
2018-08-11T09:36:12.634Z,97770
2018-08-11T09:37:28.648Z,97764
2018-08-11T09:38:44.799Z,97761
2018-08-11T09:40:00.862Z,97759
2018-08-11T09:41:16.846Z,97760
2018-08-11T09:42:32.810Z,97758
2018-08-11T09:43:48.902Z,97764
2018-08-11T09:45:04.806Z,97759
2018-08-11T09:46:20.771Z,97753
2018-08-11T09:47:36.794Z,97753
2018-08-11T09:48:52.783Z,97753
2018-08-11T09:50:08.765Z,97750
2018-08-11T09:51:24.737Z,97752
2018-08-11T09:52:40.864Z,97746
2018-08-11T09:53:56.854Z,97747
2018-08-11T09:55:12.802Z,97746
2018-08-11T09:56:28.922Z,97742
2018-08-11T09:57:44.854Z,97741
2018-08-11T09:59:01.846Z,97736
2018-08-11T10:00:18.014Z,97742
2018-08-11T10:01:33.938Z,97741
2018-08-11T10:02:49.900Z,97743
2018-08-11T10:04:05.916Z,97742
2018-08-11T10:05:21.860Z,97737
2018-08-11T10:06:37.809Z,97736
2018-08-11T10:07:53.772Z,97743
2018-08-11T10:09:09.763Z,97744
2018-08-11T10:10:25.796Z,97747
2018-08-11T10:11:41.699Z,97742
2018-08-11T10:12:57.675Z,97736
2018-08-11T10:14:13.633Z,97733
2018-08-11T10:15:29.591Z,97729
2018-08-11T10:16:45.616Z,97732
2018-08-11T10:18:01.557Z,97728
2018-08-11T10:19:17.514Z,97732
2018-08-11T10:20:33.460Z,97730
2018-08-11T10:21:49.429Z,97729
2018-08-11T10:23:05.337Z,97729
2018-08-11T10:24:21.274Z,97725
2018-08-11T10:25:37.289Z,97721
2018-08-11T10:26:53.244Z,97715
2018-08-11T10:28:09.198Z,97722
2018-08-11T10:29:25.231Z,97726
2018-08-11T10:30:41.198Z,97721
2018-08-11T10:31:57.104Z,97718
2018-08-11T10:33:13.012Z,97713
2018-08-11T10:34:28.955Z,97720
2018-08-11T10:35:44.968Z,97722
2018-08-11T10:37:00.923Z,97721
2018-08-11T10:38:16.880Z,97720
2018-08-11T10:39:32.785Z,97725
2018-08-11T10:40:49.793Z,97721
2018-08-11T10:42:05.716Z,97720
2018-08-11T10:43:21.677Z,97722
2018-08-11T10:44:37.652Z,97716
2018-08-11T10:45:53.749Z,97716
2018-08-11T10:47:09.702Z,97717
2018-08-11T10:48:25.653Z,97716
2018-08-11T10:49:41.646Z,97711
2018-08-11T10:50:57.663Z,97708
2018-08-11T10:52:13.606Z,97715
2018-08-11T10:53:29.562Z,97715
2018-08-11T10:54:45.656Z,97711
2018-08-11T10:56:01.665Z,97715
2018-08-11T10:57:18.641Z,97705
2018-08-11T10:58:34.561Z,97708
2018-08-11T10:59:50.532Z,97709
2018-08-11T11:01:06.667Z,97709
2018-08-11T11:02:22.638Z,97705
2018-08-11T11:03:38.574Z,97706
2018-08-11T11:04:54.617Z,97709
2018-08-11T11:06:10.813Z,97705
2018-08-11T11:07:26.748Z,97703
2018-08-11T11:08:42.734Z,97710
2018-08-11T11:09:58.714Z,97705
2018-08-11T11:11:14.672Z,97702
2018-08-11T11:12:30.634Z,97700
2018-08-11T11:13:46.627Z,97704
2018-08-11T11:15:02.673Z,97703
2018-08-11T11:16:18.689Z,97703
2018-08-11T11:17:34.716Z,97697
2018-08-11T11:18:50.740Z,97697
2018-08-11T11:20:06.698Z,97698
2018-08-11T11:21:22.688Z,97699
2018-08-11T11:22:38.712Z,97698
2018-08-11T11:23:54.670Z,97700
2018-08-11T11:25:10.651Z,97702
2018-08-11T11:26:26.640Z,97698
2018-08-11T11:27:42.627Z,97697
2018-08-11T11:28:58.585Z,97693
2018-08-11T11:30:14.583Z,97697
2018-08-11T11:31:30.612Z,97698
2018-08-11T11:32:46.571Z,97699
2018-08-11T11:34:02.690Z,97695
2018-08-11T11:35:18.771Z,97697
2018-08-11T11:36:34.744Z,97694
2018-08-11T11:37:50.724Z,97696
2018-08-11T11:39:06.651Z,97692
2018-08-11T11:40:22.629Z,97691
2018-08-11T11:41:38.581Z,97696
2018-08-11T11:42:54.573Z,97696
2018-08-11T11:44:10.524Z,97693
2018-08-11T11:45:26.498Z,97686
2018-08-11T11:46:42.453Z,97693
2018-08-11T11:47:58.490Z,97686
2018-08-11T11:49:14.482Z,97691
2018-08-11T11:50:30.473Z,97689
2018-08-11T11:51:46.473Z,97681
2018-08-11T11:53:02.493Z,97688
2018-08-11T11:54:18.484Z,97686
2018-08-11T11:55:34.441Z,97688
2018-08-11T11:56:50.327Z,97688
2018-08-11T11:58:06.364Z,97691
2018-08-11T11:59:22.338Z,97682
2018-08-11T12:00:38.311Z,97681
2018-08-11T12:01:54.295Z,97680
2018-08-11T12:03:10.332Z,97675
2018-08-11T12:04:26.306Z,97681
2018-08-11T12:05:42.283Z,97679
2018-08-11T12:06:58.259Z,97675
2018-08-11T12:08:14.258Z,97675
2018-08-11T12:09:30.260Z,97672
2018-08-11T12:10:46.281Z,97680
2018-08-11T12:12:02.239Z,97674
2018-08-11T12:13:18.233Z,97672
2018-08-11T12:14:34.255Z,97671
2018-08-11T12:15:50.312Z,97669
2018-08-11T12:17:06.219Z,97664
2018-08-11T12:18:22.252Z,97669
2018-08-11T12:19:38.208Z,97666
2018-08-11T12:20:54.239Z,97658
2018-08-11T12:22:10.186Z,97657
2018-08-11T12:23:26.160Z,97657
2018-08-11T12:24:42.162Z,97658
2018-08-11T12:25:58.208Z,97656
2018-08-11T12:27:14.205Z,97664
2018-08-11T12:28:30.212Z,97651
2018-08-11T12:29:46.272Z,97652
2018-08-11T12:31:02.486Z,97646
2018-08-11T12:32:18.452Z,97641
2018-08-11T12:33:34.433Z,97638
2018-08-11T12:34:50.457Z,97644
2018-08-11T12:36:06.429Z,97640
2018-08-11T12:37:22.344Z,97637
2018-08-11T12:38:38.334Z,97632
2018-08-11T12:39:54.332Z,97633
2018-08-11T12:41:10.274Z,97628
2018-08-11T12:42:26.299Z,97622
2018-08-11T12:43:42.414Z,97618
2018-08-11T12:44:58.425Z,97619
2018-08-11T12:46:14.439Z,97621
2018-08-11T12:47:30.433Z,97618
2018-08-11T12:48:46.456Z,97619
2018-08-11T12:50:02.638Z,97620
2018-08-11T12:51:18.728Z,97618
2018-08-11T12:52:34.870Z,97615
2018-08-11T12:53:50.990Z,97614
2018-08-11T12:55:07.045Z,97612
2018-08-11T12:56:23.143Z,97611
2018-08-11T12:57:39.110Z,97607
2018-08-11T12:58:55.071Z,97604
2018-08-11T13:00:11.050Z,97604
2018-08-11T13:01:27.178Z,97604
2018-08-11T13:02:43.082Z,97601
2018-08-11T13:03:59.055Z,97603
2018-08-11T13:05:15.082Z,97598
2018-08-11T13:06:31.099Z,97598
2018-08-11T13:07:47.058Z,97595
2018-08-11T13:09:02.996Z,97595
2018-08-11T13:10:18.942Z,97597
2018-08-11T13:11:34.923Z,97597
2018-08-11T13:12:50.854Z,97593
2018-08-11T13:14:06.846Z,97592
2018-08-11T13:15:22.817Z,97593
2018-08-11T13:16:38.841Z,97586
2018-08-11T13:17:54.754Z,97587
2018-08-11T13:19:10.741Z,97583
2018-08-11T13:20:26.674Z,97584
2018-08-11T13:21:42.639Z,97583
2018-08-11T13:22:58.599Z,97587
2018-08-11T13:24:14.520Z,97589
2018-08-11T13:25:30.465Z,97585
2018-08-11T13:26:46.434Z,97584
2018-08-11T13:28:02.403Z,97584
2018-08-11T13:29:18.340Z,97583
2018-08-11T13:30:34.273Z,97581
2018-08-11T13:31:50.285Z,97581
2018-08-11T13:33:06.272Z,97582
2018-08-11T13:34:22.218Z,97579
2018-08-11T13:35:38.210Z,97572
2018-08-11T13:36:54.210Z,97576
2018-08-11T13:38:10.312Z,97570
2018-08-11T13:39:26.337Z,97572
2018-08-11T13:40:42.361Z,97568
2018-08-11T13:41:58.398Z,97572
2018-08-11T13:43:14.393Z,97568
2018-08-11T13:44:30.361Z,97568
2018-08-11T13:45:46.430Z,97567
2018-08-11T13:47:02.310Z,97562
2018-08-11T13:48:18.292Z,97557
2018-08-11T13:49:34.284Z,97556
2018-08-11T13:50:50.283Z,97562
2018-08-11T13:52:06.271Z,97561
2018-08-11T13:53:22.471Z,97566
2018-08-11T13:54:38.495Z,97567
2018-08-11T13:55:54.528Z,97561
2018-08-11T13:57:10.500Z,97554
2018-08-11T13:58:26.561Z,97557
2018-08-11T13:59:42.741Z,97554
2018-08-11T14:01:00.195Z,97559
2018-08-11T14:03:57.625Z,97558
2018-08-11T14:05:14.112Z,97553
2018-08-11T14:06:30.192Z,97551
2018-08-11T14:07:46.163Z,97549
2018-08-11T14:09:02.143Z,97557
2018-08-11T14:10:18.111Z,97559
2018-08-11T14:11:34.103Z,97553
2018-08-11T14:12:50.304Z,97556
2018-08-11T14:14:06.338Z,97552
2018-08-11T14:15:22.383Z,97551
2018-08-11T14:16:38.363Z,97552
2018-08-11T14:17:54.301Z,97547
2018-08-11T14:19:10.298Z,97544
2018-08-11T14:20:26.299Z,97544
2018-08-11T14:21:42.259Z,97540
2018-08-11T14:22:58.244Z,97543
2018-08-11T14:24:14.186Z,97541
2018-08-11T14:25:30.142Z,97543
2018-08-11T14:26:46.143Z,97542
2018-08-11T14:28:02.098Z,97539
2018-08-11T14:29:18.085Z,97535
2018-08-11T14:30:34.034Z,97533
2018-08-11T14:31:50.010Z,97531
2018-08-11T14:33:05.948Z,97528
2018-08-11T14:34:21.905Z,97527
2018-08-11T14:35:37.888Z,97528
2018-08-11T14:36:53.872Z,97523
2018-08-11T14:38:09.937Z,97529
2018-08-11T14:39:25.910Z,97519
2018-08-11T14:40:41.925Z,97521
2018-08-11T14:41:57.948Z,97517
2018-08-11T14:43:13.931Z,97517
2018-08-11T14:44:29.965Z,97518
2018-08-11T14:45:45.818Z,97515
2018-08-11T14:47:02.850Z,97509
2018-08-11T14:48:18.799Z,97508
2018-08-11T14:49:34.754Z,97506
2018-08-11T14:50:50.716Z,97508
2018-08-11T14:52:06.733Z,97500
2018-08-11T14:53:22.717Z,97504
2018-08-11T14:54:38.652Z,97500
2018-08-11T14:55:54.592Z,97504
2018-08-11T14:57:10.627Z,97496
2018-08-11T14:58:26.558Z,97498
2018-08-11T14:59:42.511Z,97496
2018-08-11T15:00:58.462Z,97496
2018-08-11T15:02:14.387Z,97495
2018-08-11T15:03:30.363Z,97492
2018-08-11T15:04:46.316Z,97492
2018-08-11T15:06:03.348Z,97492
2018-08-11T15:07:19.293Z,97489
2018-08-11T15:08:35.303Z,97492
2018-08-11T15:09:51.334Z,97488
2018-08-11T15:11:07.232Z,97488
2018-08-11T15:12:23.217Z,97485
2018-08-11T15:13:40.149Z,97484
2018-08-11T15:14:56.102Z,97481
2018-08-11T15:16:12.118Z,97485
2018-08-11T15:17:28.051Z,97489
2018-08-11T15:18:44.021Z,97478
2018-08-11T15:19:59.979Z,97478
2018-08-11T15:21:15.933Z,97479
2018-08-11T15:22:31.888Z,97487
2018-08-11T15:23:47.838Z,97484
2018-08-11T15:25:03.828Z,97482
2018-08-11T15:26:19.897Z,97491
2018-08-11T15:27:35.972Z,97487
2018-08-11T15:28:51.981Z,97489
2018-08-11T15:30:07.939Z,97486
2018-08-11T15:31:24.889Z,97481
2018-08-11T15:32:40.877Z,97481
2018-08-11T15:33:56.816Z,97477
2018-08-11T15:35:12.893Z,97477
2018-08-11T15:38:09.445Z,97480
2018-08-11T15:39:25.440Z,97474
2018-08-11T15:40:41.415Z,97474
2018-08-11T15:41:57.403Z,97473
2018-08-11T15:43:14.403Z,97471
2018-08-11T15:44:30.478Z,97473
2018-08-11T15:45:46.440Z,97473
2018-08-11T15:47:02.389Z,97471
2018-08-11T15:48:18.384Z,97474
2018-08-11T15:49:34.411Z,97471
2018-08-11T15:50:50.365Z,97471
2018-08-11T15:52:06.372Z,97474
2018-08-11T15:53:22.375Z,97466
2018-08-11T15:54:38.312Z,97466
2018-08-11T15:55:54.270Z,97465
2018-08-11T15:57:10.342Z,97472
2018-08-11T15:58:26.402Z,97473
2018-08-11T15:59:42.554Z,97462
2018-08-11T16:00:58.550Z,97462
2018-08-11T16:02:14.577Z,97464
2018-08-11T16:03:30.589Z,97461
2018-08-11T16:04:46.523Z,97460
2018-08-11T16:06:02.511Z,97458
2018-08-11T16:07:18.492Z,97458
2018-08-11T16:08:34.468Z,97461
2018-08-11T16:09:50.552Z,97457
2018-08-11T16:11:06.537Z,97464
2018-08-11T16:12:22.623Z,97459
2018-08-11T16:13:38.579Z,97459
2018-08-11T16:14:54.798Z,97461
2018-08-11T16:16:10.858Z,97459
2018-08-11T16:17:26.903Z,97458
2018-08-11T16:18:42.894Z,97452
2018-08-11T16:19:58.842Z,97459
2018-08-11T16:21:14.881Z,97455
2018-08-11T16:22:31.050Z,97452
2018-08-11T16:23:47.001Z,97452
2018-08-11T16:25:02.985Z,97450
2018-08-11T16:26:18.945Z,97452
2018-08-11T16:27:35.038Z,97450
2018-08-11T16:28:51.050Z,97445